Stolt Island — ZCXG7 — position and weather

sailwx.info

Track history (hours):
 
Tides and Currents Weather Stations Pressure Air Temp Water Temp Dewpoint Dewpoint Depression Visibility Wind Speed Wind Dir Waves Ship Positions

Stolt Island

Last reported at 2017-Dec-02 15:12 UTC. Time now 2017-Dec-17 04:15 UTC.
Position N 31°00' E 122°26'.
Warning: this ship's position is 14 days out of date.

Length 183 m; draft 8.3 m.

Type: Ship (hazmat cat B). MMSI: 319963000.

Date/timePositionNaut miles runAvg speedWind from/ knotsBaromVisibWave heightAir tempDewpointWater temp
2017-Dec-02 15:12N 31°00' E 122°26'514.1
2017-Dec-02 14:52N 31°02' E 122°21'513.6
2017-Dec-02 14:30N 31°02' E 122°15'5 9.9
2017-Dec-02 14:00N 31°03' E 122°09'510.0
2017-Dec-02 13:30N 31°04' E 122°04'4 8.8
2017-Dec-02 13:00N 31°06' E 121°59'4 7.6
2017-Dec-02 12:30N 31°08' E 121°55'4 7.7
2017-Dec-02 12:00N 31°10' E 121°51'4 8.6
2017-Dec-02 11:30N 31°13' E 121°48'16 8.4
2017-Dec-02 09:37N 31°24' E 121°34'2 9.1
2017-Dec-02 09:27N 31°24' E 121°32'4 8.3
2017-Dec-02 08:57N 31°27' E 121°29'5 9.9
2017-Dec-02 08:26N 31°30' E 121°24'511.3
2017-Dec-02 08:00N 31°33' E 121°20'713.4
2017-Dec-02 07:27N 31°39' E 121°14'510.5
2017-Dec-02 06:59N 31°42' E 121°09'612.4
2017-Dec-02 06:30N 31°46' E 121°04'31 9.4
2017-Dec-02 03:15N 32°01' E 120°33'513.0
2017-Dec-02 02:54N 32°02' E 120°27'  
2017-Nov-28 01:32N 32°01' E 120°24'112.4
2017-Nov-28 01:27N 32°02' E 120°25'511.7
2017-Nov-28 01:00N 32°02' E 120°32'3210.5
2017-Nov-27 21:58N 31°46' E 121°04'612.1
2017-Nov-27 21:30N 31°42' E 121°09'612.0
2017-Nov-27 21:00N 31°38' E 121°15'611.2
2017-Nov-27 20:28N 31°34' E 121°20'1 1.3
2017-Nov-27 19:53N 31°34' E 121°21'0 0.0
2017-Nov-27 19:26N 31°34' E 121°21'0 0.0
2017-Nov-27 18:59N 31°34' E 121°21'0 0.0
2017-Nov-27 18:26N 31°34' E 121°21'0 0.0
2017-Nov-27 17:53N 31°34' E 121°21'0 0.0
2017-Nov-27 17:29N 31°34' E 121°21'0 0.0
2017-Nov-27 16:47N 31°34' E 121°21'0 0.1
2017-Nov-27 16:26N 31°34' E 121°21'0 0.0
2017-Nov-27 15:59N 31°34' E 121°21'0 0.1
2017-Nov-27 15:26N 31°34' E 121°21'0 0.2
2017-Nov-27 14:56N 31°34' E 121°21'0 0.2
2017-Nov-27 14:29N 31°34' E 121°20'0 0.1
2017-Nov-27 13:50N 31°34' E 121°20'0 0.8
2017-Nov-27 13:24N 31°34' E 121°21'3 6.8
2017-Nov-27 13:00N 31°31' E 121°23'5 9.9
2017-Nov-27 12:30N 31°28' E 121°27'4 8.4
2017-Nov-27 12:00N 31°25' E 121°31'610.4
2017-Nov-27 11:26N 31°22' E 121°37'611.3
2017-Nov-27 10:53N 31°19' E 121°43'510.8
2017-Nov-27 10:28N 31°18' E 121°48'510.0
2017-Nov-27 09:57N 31°16' E 121°54'510.7
2017-Nov-27 09:30N 31°15' E 121°59'17 9.7
2017-Nov-27 07:48N 31°07' E 122°16'18 0.9
2017-Nov-26 10:20N 31°04' E 122°37'2 6.8
2017-Nov-26 09:59N 31°06' E 122°40'6 9.2
2017-Nov-26 09:21N 31°06' E 122°47'712.2
2017-Nov-26 08:45N 31°06' E 122°55'313.1
2017-Nov-26 08:30N 31°06' E 122°59'  
Track history (hours):
 
Tides and Currents Weather Stations Pressure Air Temp Water Temp Dewpoint Dewpoint Depression Visibility Wind Speed Wind Dir Waves Ship Positions

Stolt Island

Last reported at 2017-Dec-02 15:12 UTC. Time now 2017-Dec-17 04:15 UTC.
Position N 31°00' E 122°26'.
Warning: this ship's position is 14 days out of date.

Length 183 m; draft 8.3 m.

Type: Ship (hazmat cat B). MMSI: 319963000.

Date/timePositionNaut miles runAvg speedWind from/ knotsBaromVisibWave heightAir tempDewpointWater temp
2017-Dec-02 15:12N 31°00' E 122°26'514.1
2017-Dec-02 14:52N 31°02' E 122°21'513.6
2017-Dec-02 14:30N 31°02' E 122°15'5 9.9
2017-Dec-02 14:00N 31°03' E 122°09'510.0
2017-Dec-02 13:30N 31°04' E 122°04'4 8.8
2017-Dec-02 13:00N 31°06' E 121°59'4 7.6
2017-Dec-02 12:30N 31°08' E 121°55'4 7.7
2017-Dec-02 12:00N 31°10' E 121°51'4 8.6
2017-Dec-02 11:30N 31°13' E 121°48'16 8.4
2017-Dec-02 09:37N 31°24' E 121°34'2 9.1
2017-Dec-02 09:27N 31°24' E 121°32'4 8.3
2017-Dec-02 08:57N 31°27' E 121°29'5 9.9
2017-Dec-02 08:26N 31°30' E 121°24'511.3
2017-Dec-02 08:00N 31°33' E 121°20'713.4
2017-Dec-02 07:27N 31°39' E 121°14'510.5
2017-Dec-02 06:59N 31°42' E 121°09'612.4
2017-Dec-02 06:30N 31°46' E 121°04'31 9.4
2017-Dec-02 03:15N 32°01' E 120°33'513.0
2017-Dec-02 02:54N 32°02' E 120°27'  
2017-Nov-28 01:32N 32°01' E 120°24'112.4
2017-Nov-28 01:27N 32°02' E 120°25'511.7
2017-Nov-28 01:00N 32°02' E 120°32'3210.5
2017-Nov-27 21:58N 31°46' E 121°04'612.1
2017-Nov-27 21:30N 31°42' E 121°09'612.0
2017-Nov-27 21:00N 31°38' E 121°15'611.2
2017-Nov-27 20:28N 31°34' E 121°20'1 1.3
2017-Nov-27 19:53N 31°34' E 121°21'0 0.0
2017-Nov-27 19:26N 31°34' E 121°21'0 0.0
2017-Nov-27 18:59N 31°34' E 121°21'0 0.0
2017-Nov-27 18:26N 31°34' E 121°21'0 0.0
2017-Nov-27 17:53N 31°34' E 121°21'0 0.0
2017-Nov-27 17:29N 31°34' E 121°21'0 0.0
2017-Nov-27 16:47N 31°34' E 121°21'0 0.1
2017-Nov-27 16:26N 31°34' E 121°21'0 0.0
2017-Nov-27 15:59N 31°34' E 121°21'0 0.1
2017-Nov-27 15:26N 31°34' E 121°21'0 0.2
2017-Nov-27 14:56N 31°34' E 121°21'0 0.2
2017-Nov-27 14:29N 31°34' E 121°20'0 0.1
2017-Nov-27 13:50N 31°34' E 121°20'0 0.8
2017-Nov-27 13:24N 31°34' E 121°21'3 6.8
2017-Nov-27 13:00N 31°31' E 121°23'5 9.9
2017-Nov-27 12:30N 31°28' E 121°27'4 8.4
2017-Nov-27 12:00N 31°25' E 121°31'610.4
2017-Nov-27 11:26N 31°22' E 121°37'611.3
2017-Nov-27 10:53N 31°19' E 121°43'510.8
2017-Nov-27 10:28N 31°18' E 121°48'510.0
2017-Nov-27 09:57N 31°16' E 121°54'510.7
2017-Nov-27 09:30N 31°15' E 121°59'17 9.7
2017-Nov-27 07:48N 31°07' E 122°16'18 0.9
2017-Nov-26 10:20N 31°04' E 122°37'2 6.8
2017-Nov-26 09:59N 31°06' E 122°40'6 9.2
2017-Nov-26 09:21N 31°06' E 122°47'712.2
2017-Nov-26 08:45N 31°06' E 122°55'313.1
2017-Nov-26 08:30N 31°06' E 122°59'  

Dump ship's entire track history